Time;durP1;ratioP1;P1;durP2;ratioP2;P2;SDS_P1;SDS_P2;PMS_P1;PMS_P2;Temp;Humidity;BMP_temperature;BMP_pressure;BME280_temperature;BME280_humidity;BME280_pressure;Samples;Min_cycle;Max_cycle;Signal;HPM_P1;HPM_P2
2021/12/08 00:01:22;;;;;;;4.93;3.37;;;-5.90;99.90;;;;;;4362908;32;20147;-65
2021/12/08 00:03:49;;;;;;;5.80;4.32;;;-5.80;99.90;;;;;;4362529;32;20074;-63
2021/12/08 00:06:16;;;;;;;5.93;3.28;;;-5.70;99.90;;;;;;4362458;32;20070;-65
2021/12/08 00:08:49;;;;;;;4.97;3.10;;;-5.80;99.90;;;;;;4350167;32;20094;-64
2021/12/08 00:14:01;;;;;;;6.68;4.03;;;-5.90;99.90;;;;;;4376199;32;20460;-63
2021/12/08 00:16:28;;;;;;;5.47;3.17;;;-5.90;99.90;;;;;;4362364;32;20092;-65
2021/12/08 00:18:58;;;;;;;5.85;3.92;;;-5.80;99.90;;;;;;4362017;32;20067;-63
2021/12/08 00:21:27;;;;;;;5.62;4.20;;;-5.70;99.90;;;;;;4362404;32;20456;-64
2021/12/08 00:23:53;;;;;;;6.12;4.10;;;-5.70;99.90;;;;;;4375237;32;20104;-64
2021/12/08 00:26:20;;;;;;;7.97;4.35;;;-5.70;99.90;;;;;;4374427;32;20086;-64
2021/12/08 00:28:46;;;;;;;8.40;4.10;;;-5.60;99.90;;;;;;4375146;32;20074;-63
2021/12/08 00:31:13;;;;;;;5.28;3.80;;;-5.50;99.90;;;;;;4374856;32;20453;-62
2021/12/08 00:33:40;;;;;;;6.22;3.97;;;-5.50;99.90;;;;;;4362679;32;20061;-64
2021/12/08 00:36:12;;;;;;;5.82;3.72;;;-5.60;99.90;;;;;;4362268;32;20113;-65
2021/12/08 00:38:39;;;;;;;5.40;3.60;;;-5.40;99.90;;;;;;4374856;32;20570;-65
2021/12/08 00:41:06;;;;;;;6.55;3.80;;;-5.40;99.90;;;;;;4349805;32;20468;-64
2021/12/08 00:43:33;;;;;;;4.68;3.40;;;-5.40;99.90;;;;;;4362112;32;20069;-64
2021/12/08 00:45:59;;;;;;;6.78;3.90;;;-5.40;99.90;;;;;;4349824;32;20512;-64
2021/12/08 00:48:26;;;;;;;8.10;4.45;;;-5.30;99.90;;;;;;4362391;32;20074;-64
2021/12/08 00:50:53;;;;;;;6.47;4.35;;;-5.30;99.90;;;;;;4349845;32;20524;-66
2021/12/08 00:53:20;;;;;;;6.12;4.18;;;-5.20;99.90;;;;;;4362281;32;20074;-63
2021/12/08 00:55:47;;;;;;;8.30;3.95;;;-5.20;99.90;;;;;;4349840;32;20101;-63
2021/12/08 00:58:13;;;;;;;7.90;4.25;;;-5.20;99.90;;;;;;4374482;32;20094;-64
2021/12/08 01:00:48;;;;;;;6.30;3.60;;;-5.10;99.90;;;;;;4362029;32;20066;-62
2021/12/08 01:03:16;;;;;;;7.45;4.00;;;-5.10;99.90;;;;;;4374334;32;20163;-64
2021/12/08 01:05:54;;;;;;;7.05;4.50;;;-5.10;99.90;;;;;;4349770;32;20163;-65
2021/12/08 01:08:23;;;;;;;5.90;3.80;;;-5.00;99.90;;;;;;4374986;32;20491;-63
2021/12/08 01:10:53;;;;;;;5.60;3.85;;;-5.00;99.90;;;;;;4374793;32;20058;-65
2021/12/08 01:13:20;;;;;;;5.95;3.78;;;-4.80;99.90;;;;;;4376073;32;20455;-65
2021/12/08 01:15:54;;;;;;;5.85;3.87;;;-4.70;99.90;;;;;;4361732;32;20085;-64
2021/12/08 01:18:22;;;;;;;6.60;3.67;;;-4.60;99.90;;;;;;4361957;32;20166;-66
2021/12/08 01:20:52;;;;;;;5.45;3.85;;;-4.60;99.90;;;;;;4374503;32;20094;-65
2021/12/08 01:23:20;;;;;;;6.12;3.62;;;-4.50;99.90;;;;;;4374328;32;20093;-64
2021/12/08 01:25:46;;;;;;;6.57;3.50;;;-4.50;99.90;;;;;;4374180;32;20074;-64
2021/12/08 01:28:13;;;;;;;5.62;3.50;;;-4.50;99.90;;;;;;4374042;32;20519;-65
2021/12/08 01:30:40;;;;;;;5.65;3.70;;;-4.40;99.90;;;;;;4350849;32;20508;-64
2021/12/08 01:33:06;;;;;;;5.70;3.55;;;-4.40;99.90;;;;;;4364633;32;20072;-65
2021/12/08 01:35:33;;;;;;;8.65;3.53;;;-4.30;99.90;;;;;;4378578;32;20066;-64
2021/12/08 01:38:00;;;;;;;7.20;3.67;;;-4.30;99.90;;;;;;4364745;32;20422;-64
2021/12/08 01:40:26;;;;;;;6.32;4.07;;;-4.20;99.90;;;;;;4364787;32;20515;-64
2021/12/08 01:42:56;;;;;;;5.70;3.50;;;-4.20;99.90;;;;;;4378415;32;20460;-63
2021/12/08 01:48:16;;;;;;;5.95;3.72;;;-4.20;99.90;;;;;;4377305;32;20094;-64
2021/12/08 01:50:48;;;;;;;2.87;1.90;;;-4.10;99.90;;;;;;4376725;32;20073;-65
2021/12/08 01:53:16;;;;;;;4.90;3.22;;;-4.10;99.90;;;;;;4364344;32;20074;-64
2021/12/08 01:55:42;;;;;;;5.68;3.40;;;-4.00;99.90;;;;;;4364226;32;20074;-64
2021/12/08 01:58:11;;;;;;;5.93;3.00;;;-4.00;99.90;;;;;;4351828;32;20071;-63
2021/12/08 02:00:58;;;;;;;5.55;3.15;;;-4.10;99.90;;;;;;4376645;32;20096;-66
2021/12/08 02:03:25;;;;;;;6.53;3.78;;;-4.10;99.90;;;;;;4364441;32;20508;-64
2021/12/08 02:05:53;;;;;;;5.78;3.72;;;-4.00;99.90;;;;;;4364549;32;20066;-63
2021/12/08 02:08:21;;;;;;;5.50;3.70;;;-4.10;99.90;;;;;;4364159;32;20089;-63
2021/12/08 02:10:48;;;;;;;5.40;2.87;;;-4.00;99.90;;;;;;4364395;32;20088;-65
2021/12/08 02:13:15;;;;;;;5.07;3.47;;;-4.00;99.90;;;;;;4376415;32;20074;-64
2021/12/08 02:15:41;;;;;;;6.18;3.40;;;-3.90;99.90;;;;;;4364359;32;20151;-64
2021/12/08 02:18:14;;;;;;;4.87;3.00;;;-3.80;99.90;;;;;;4363776;32;20088;-65
2021/12/08 02:20:47;;;;;;;5.40;3.37;;;-3.80;99.90;;;;;;4352254;32;20445;-65
2021/12/08 02:23:16;;;;;;;5.93;3.25;;;-3.80;99.90;;;;;;4351571;32;20077;-65
2021/12/08 02:25:45;;;;;;;4.80;3.17;;;-3.80;99.90;;;;;;4363643;32;20070;-64
2021/12/08 02:28:12;;;;;;;4.75;3.08;;;-3.70;99.90;;;;;;4376078;32;20074;-65
2021/12/08 02:30:52;;;;;;;4.40;3.20;;;-3.60;99.90;;;;;;4377517;32;20116;-66
2021/12/08 02:47:27;;;;;;;4.87;2.70;;;-3.40;99.90;;;;;;4365783;32;20078;-64
2021/12/08 02:49:54;;;;;;;5.30;3.15;;;-3.30;99.90;;;;;;4352753;32;20074;-63
2021/12/08 02:52:21;;;;;;;5.03;3.40;;;-3.30;99.90;;;;;;4376317;32;20153;-63
2021/12/08 02:54:50;;;;;;;4.37;2.78;;;-3.30;99.90;;;;;;4376635;32;20089;-64
2021/12/08 02:57:25;;;;;;;5.57;3.47;;;-3.20;99.90;;;;;;4376010;32;20520;-64
2021/12/08 02:59:52;;;;;;;4.75;2.90;;;-3.20;99.90;;;;;;4363989;32;20066;-64
2021/12/08 03:02:18;;;;;;;4.62;3.22;;;-3.10;99.90;;;;;;4375742;32;20085;-63
2021/12/08 03:04:47;;;;;;;5.28;3.33;;;-3.10;99.90;;;;;;4351059;32;20082;-64
2021/12/08 03:07:13;;;;;;;5.70;3.05;;;-3.10;99.90;;;;;;4375779;32;20074;-64
2021/12/08 03:09:40;;;;;;;4.78;3.50;;;-3.20;99.90;;;;;;4377018;32;20083;-64
2021/12/08 03:12:07;;;;;;;5.40;3.40;;;-3.20;99.90;;;;;;4375733;32;20082;-63
2021/12/08 03:14:34;;;;;;;5.43;3.60;;;-3.20;99.90;;;;;;4375957;32;20081;-64
2021/12/08 03:17:06;;;;;;;5.60;3.40;;;-3.10;99.90;;;;;;4375710;32;20090;-63
2021/12/08 03:19:33;;;;;;;4.53;3.10;;;-3.10;99.90;;;;;;4363288;32;20571;-65
2021/12/08 03:22:03;;;;;;;6.93;3.78;;;-3.20;99.90;;;;;;4363091;32;20082;-64
2021/12/08 03:24:33;;;;;;;5.03;3.35;;;-3.20;99.90;;;;;;4363003;32;20070;-63
2021/12/08 03:29:48;;;;;;;4.70;3.20;;;-3.30;99.90;;;;;;4377187;32;20463;-63
2021/12/08 03:32:24;;;;;;;5.10;3.45;;;-3.20;99.90;;;;;;4375696;32;20090;-64
2021/12/08 03:34:54;;;;;;;6.15;3.47;;;-3.20;99.90;;;;;;4364189;32;20093;-65
2021/12/08 03:37:32;;;;;;;5.80;3.33;;;-3.20;99.90;;;;;;4363722;32;20101;-64
2021/12/08 03:40:02;;;;;;;5.75;3.60;;;-3.30;99.90;;;;;;4362948;32;20086;-63
2021/12/08 03:42:33;;;;;;;6.95;3.92;;;-3.20;99.90;;;;;;4362988;32;20097;-65
2021/12/08 03:45:02;;;;;;;5.15;3.60;;;-3.20;99.90;;;;;;4375780;32;20460;-66
2021/12/08 03:47:29;;;;;;;5.78;3.60;;;-3.10;99.90;;;;;;4363034;32;20108;-64
2021/12/08 03:50:06;;;;;;;5.45;3.08;;;-3.10;99.90;;;;;;4362723;32;20081;-64
2021/12/08 03:52:32;;;;;;;5.12;3.50;;;-3.10;99.90;;;;;;4375150;32;20580;-65
2021/12/08 03:54:59;;;;;;;4.70;3.10;;;-3.00;99.90;;;;;;4362723;32;20077;-63
2021/12/08 03:57:26;;;;;;;5.70;3.65;;;-3.00;99.90;;;;;;4362524;32;20070;-65
2021/12/08 03:59:52;;;;;;;5.50;3.40;;;-2.90;99.90;;;;;;4374909;32;20112;-63
2021/12/08 04:02:18;;;;;;;4.60;3.08;;;-3.00;99.90;;;;;;4374899;32;20086;-64
2021/12/08 04:04:49;;;;;;;5.55;3.35;;;-3.00;99.90;;;;;;4362644;32;20149;-64
2021/12/08 04:07:17;;;;;;;6.35;3.42;;;-3.00;99.90;;;;;;4375441;32;20108;-63
2021/12/08 04:09:47;;;;;;;5.00;3.50;;;-2.90;99.90;;;;;;4374814;32;20090;-66
2021/12/08 04:12:17;;;;;;;5.28;3.40;;;-2.80;99.90;;;;;;4375393;32;20065;-65
2021/12/08 04:14:58;;;;;;;4.85;3.35;;;-2.80;99.90;;;;;;4376175;32;20101;-64
2021/12/08 04:17:40;;;;;;;5.78;3.40;;;-2.70;99.90;;;;;;4376194;32;20109;-63
2021/12/08 04:20:16;;;;;;;5.10;3.40;;;-2.70;99.90;;;;;;4374941;32;20066;-64
2021/12/08 04:22:49;;;;;;;4.25;2.90;;;-2.60;99.90;;;;;;4362630;32;20070;-65
2021/12/08 04:25:32;;;;;;;5.15;3.72;;;-2.60;99.90;;;;;;4362305;32;20582;-64
2021/12/08 04:28:15;;;;;;;5.50;3.33;;;-2.60;99.90;;;;;;4375949;32;20480;-65
2021/12/08 04:30:56;;;;;;;4.72;3.35;;;-2.60;99.90;;;;;;4362472;32;20077;-64
2021/12/08 04:33:23;;;;;;;4.85;3.20;;;-2.60;99.90;;;;;;4362046;32;20070;-64
2021/12/08 04:35:53;;;;;;;4.72;3.17;;;-2.50;99.90;;;;;;4362299;32;20074;-64
2021/12/08 04:38:29;;;;;;;5.70;3.25;;;-2.50;99.90;;;;;;4362677;32;20589;-64
2021/12/08 04:41:05;;;;;;;4.82;3.25;;;-2.50;99.90;;;;;;4374626;32;20441;-63
2021/12/08 04:43:46;;;;;;;4.32;2.92;;;-2.50;99.90;;;;;;4362199;32;20524;-63
2021/12/08 04:51:55;;;;;;;4.00;2.60;;;-2.30;99.90;;;;;;4374507;32;20534;-63
2021/12/08 05:00:44;;;;;;;4.30;2.70;;;-2.20;99.90;;;;;;4363894;32;20154;-64
2021/12/08 05:06:04;;;;;;;5.55;3.00;;;-2.10;99.90;;;;;;4377361;32;20086;-63
2021/12/08 05:08:41;;;;;;;6.00;3.45;;;-2.20;99.90;;;;;;4377466;32;20075;-65
2021/12/08 05:11:22;;;;;;;5.12;3.30;;;-2.10;99.90;;;;;;4365094;32;20160;-63
2021/12/08 05:13:56;;;;;;;4.75;3.00;;;-2.10;99.90;;;;;;4365309;32;20192;-63
2021/12/08 05:16:25;;;;;;;5.15;3.28;;;-2.10;99.90;;;;;;4377460;32;20076;-63
2021/12/08 05:18:56;;;;;;;5.03;3.22;;;-2.10;99.90;;;;;;4377056;32;20092;-63
2021/12/08 05:22:05;;;;;;;4.80;3.35;;;-2.20;99.90;;;;;;4352572;32;20179;-65
2021/12/08 05:24:38;;;;;;;5.07;3.30;;;-2.20;99.90;;;;;;4377223;32;20155;-64
2021/12/08 05:27:12;;;;;;;3.37;2.40;;;-2.10;99.90;;;;;;4377718;32;20089;-65
2021/12/08 05:30:13;;;;;;;5.05;2.92;;;-2.20;99.90;;;;;;4377446;32;20158;-64
2021/12/08 05:32:40;;;;;;;4.57;2.95;;;-2.10;99.90;;;;;;4366243;32;20077;-64
2021/12/08 05:35:11;;;;;;;4.20;2.92;;;-2.10;99.90;;;;;;4365165;32;20194;-65
2021/12/08 05:37:38;;;;;;;4.15;2.70;;;-2.10;99.90;;;;;;4364929;32;20086;-66
2021/12/08 05:40:11;;;;;;;5.47;2.92;;;-2.10;99.90;;;;;;4364689;32;20090;-65
2021/12/08 05:42:37;;;;;;;5.40;3.28;;;-2.20;99.90;;;;;;4364698;32;20076;-63
2021/12/08 05:45:16;;;;;;;3.17;2.08;;;-2.20;99.90;;;;;;4364512;32;20082;-64
2021/12/08 05:47:47;;;;;;;5.68;3.15;;;-2.20;99.90;;;;;;4376784;32;20175;-63
2021/12/08 05:50:23;;;;;;;5.07;3.37;;;-2.20;99.90;;;;;;4352215;32;20097;-66
2021/12/08 05:52:53;;;;;;;4.32;2.33;;;-2.20;99.90;;;;;;4376989;32;20120;-63
2021/12/08 05:55:20;;;;;;;5.62;3.30;;;-2.10;99.90;;;;;;4366727;32;20490;-64
2021/12/08 05:57:47;;;;;;;5.70;3.78;;;-2.10;99.90;;;;;;4385633;32;20078;-64
2021/12/08 06:00:24;;;;;;;6.45;3.87;;;-2.10;99.90;;;;;;4390099;32;20093;-65
2021/12/08 06:02:52;;;;;;;7.35;3.85;;;-2.00;99.90;;;;;;4384507;32;20054;-64
2021/12/08 06:05:20;;;;;;;6.80;3.90;;;-2.00;99.90;;;;;;4359189;32;20123;-63
2021/12/08 06:07:46;;;;;;;5.62;3.80;;;-2.00;99.90;;;;;;4379851;32;20841;-63
2021/12/08 06:10:27;;;;;;;5.93;3.60;;;-2.00;99.90;;;;;;4369366;32;20154;-65
2021/12/08 06:12:54;;;;;;;6.22;3.83;;;-2.00;99.90;;;;;;4379467;32;20078;-64
2021/12/08 06:15:21;;;;;;;5.62;3.90;;;-1.90;99.90;;;;;;4384197;32;20088;-66
2021/12/08 06:17:49;;;;;;;5.15;3.60;;;-1.80;99.90;;;;;;4363419;32;20607;-64
2021/12/08 06:20:17;;;;;;;4.62;3.20;;;-1.70;99.90;;;;;;4375831;32;20158;-65
2021/12/08 06:22:47;;;;;;;5.20;3.53;;;-1.70;99.90;;;;;;4378266;32;20095;-64
2021/12/08 06:25:15;;;;;;;5.55;3.42;;;-1.60;99.90;;;;;;4376557;32;20085;-63
2021/12/08 06:27:44;;;;;;;5.62;4.00;;;-1.60;99.90;;;;;;4375105;32;20627;-62
2021/12/08 06:30:15;;;;;;;5.50;3.10;;;-1.60;99.90;;;;;;4377497;32;20070;-62
2021/12/08 06:32:43;;;;;;;5.53;3.55;;;-1.60;99.90;;;;;;4372281;32;20113;-65
2021/12/08 06:35:17;;;;;;;5.30;3.80;;;-1.50;99.90;;;;;;4363935;32;20599;-66
2021/12/08 06:37:45;;;;;;;5.68;3.67;;;-1.60;99.90;;;;;;4375772;32;20142;-64
2021/12/08 06:40:36;;;;;;;6.47;3.95;;;-1.50;99.90;;;;;;4383964;32;20527;-63
2021/12/08 06:43:07;;;;;;;7.22;3.90;;;-1.50;99.90;;;;;;4383957;32;20137;-62
2021/12/08 06:45:41;;;;;;;6.50;3.90;;;-1.40;99.90;;;;;;4372147;32;20090;-63
2021/12/08 06:48:14;;;;;;;6.15;4.05;;;-1.40;99.90;;;;;;4375679;32;20077;-63
2021/12/08 06:50:58;;;;;;;6.15;3.37;;;-1.40;99.90;;;;;;4373613;32;20085;-64
2021/12/08 06:53:26;;;;;;;5.70;3.50;;;-1.40;99.90;;;;;;4385612;32;20070;-63
2021/12/08 06:56:02;;;;;;;6.95;4.35;;;-1.40;99.90;;;;;;4382171;32;20448;-64
2021/12/08 06:58:34;;;;;;;6.20;4.25;;;-1.40;99.90;;;;;;4383573;32;20086;-65
2021/12/08 07:01:42;;;;;;;6.32;3.70;;;-1.30;99.90;;;;;;4381184;32;20073;-62
2021/12/08 07:07:01;;;;;;;5.87;3.47;;;-1.30;99.90;;;;;;4391220;32;20037;-64
2021/12/08 07:09:42;;;;;;;7.05;4.05;;;-1.20;99.90;;;;;;4359640;32;20085;-61
2021/12/08 07:12:35;;;;;;;5.70;3.90;;;-1.10;99.90;;;;;;4386687;32;20094;-61
2021/12/08 07:15:25;;;;;;;7.68;4.15;;;-1.10;99.90;;;;;;4374241;32;20101;-63
2021/12/08 07:17:58;;;;;;;5.80;3.75;;;-1.00;99.90;;;;;;4385599;32;20516;-63
2021/12/08 07:20:45;;;;;;;7.30;4.18;;;-0.90;99.90;;;;;;4385598;32;20165;-63
2021/12/08 07:23:21;;;;;;;5.10;3.60;;;-0.90;99.90;;;;;;4372999;32;20084;-64
2021/12/08 07:25:49;;;;;;;6.17;3.83;;;-0.80;99.90;;;;;;4399478;32;20076;-63
2021/12/08 07:28:18;;;;;;;5.47;3.95;;;-0.80;99.90;;;;;;4375189;32;20516;-64
2021/12/08 07:31:21;;;;;;;6.35;3.75;;;-0.80;99.90;;;;;;4380959;32;20190;-65
2021/12/08 07:33:48;;;;;;;6.43;3.67;;;-0.60;99.90;;;;;;4370755;32;20086;-64
2021/12/08 07:36:18;;;;;;;5.60;3.97;;;-0.60;99.90;;;;;;4380595;32;20074;-64
2021/12/08 07:38:52;;;;;;;7.30;4.05;;;-0.60;99.90;;;;;;4367688;32;20085;-62
2021/12/08 07:41:33;;;;;;;6.10;3.95;;;-0.60;99.90;;;;;;4387567;32;20058;-63
2021/12/08 07:44:06;;;;;;;5.85;3.75;;;-0.50;99.90;;;;;;4378982;32;20230;-63
2021/12/08 07:46:40;;;;;;;6.18;4.30;;;-0.50;99.90;;;;;;4386951;32;20074;-63
2021/12/08 07:49:20;;;;;;;5.53;3.58;;;-0.60;99.90;;;;;;4375156;32;20081;-63
2021/12/08 07:51:56;;;;;;;5.97;4.10;;;-0.50;99.90;;;;;;4362296;32;20134;-64
2021/12/08 07:54:23;;;;;;;5.15;3.60;;;-0.50;99.90;;;;;;4363863;32;20059;-63
2021/12/08 07:56:55;;;;;;;6.10;4.20;;;-0.40;99.90;;;;;;4366855;32;20548;-64
2021/12/08 07:59:23;;;;;;;5.30;3.55;;;-0.40;99.90;;;;;;4378255;32;20155;-63
2021/12/08 08:01:59;;;;;;;6.60;3.97;;;-0.50;99.90;;;;;;4380222;32;20509;-64
2021/12/08 08:04:28;;;;;;;5.27;3.70;;;-0.50;99.90;;;;;;4364049;32;20163;-63
2021/12/08 08:07:00;;;;;;;8.20;4.03;;;-0.50;99.90;;;;;;4380748;32;20158;-66
2021/12/08 08:09:35;;;;;;;7.35;4.53;;;-0.50;99.90;;;;;;4376182;32;20072;-63
2021/12/08 08:12:08;;;;;;;6.10;3.97;;;-0.40;99.90;;;;;;4366802;32;20085;-63
2021/12/08 08:14:42;;;;;;;5.65;3.67;;;-0.40;99.90;;;;;;4362324;32;20076;-64
2021/12/08 08:17:22;;;;;;;6.10;3.78;;;-0.40;99.90;;;;;;4384350;32;20105;-63
2021/12/08 08:19:49;;;;;;;5.53;3.05;;;-0.40;99.90;;;;;;4364974;32;20097;-62
2021/12/08 08:22:27;;;;;;;5.87;3.37;;;-0.40;99.90;;;;;;4377056;32;20070;-62
2021/12/08 08:25:02;;;;;;;5.62;3.67;;;-0.30;99.90;;;;;;4364965;32;20097;-63
2021/12/08 08:27:29;;;;;;;5.15;3.40;;;-0.20;99.90;;;;;;4365240;32;20066;-64
2021/12/08 08:29:56;;;;;;;5.45;3.50;;;-0.10;99.90;;;;;;4387498;32;20085;-65
2021/12/08 08:32:31;;;;;;;4.00;2.15;;;-0.20;99.90;;;;;;4389213;32;20134;-63
2021/12/08 08:35:13;;;;;;;6.00;3.30;;;0.00;99.90;;;;;;4381172;32;21550;-63
2021/12/08 08:37:39;;;;;;;5.50;3.35;;;0.00;99.90;;;;;;4374720;32;20085;-64
2021/12/08 08:40:16;;;;;;;5.62;3.65;;;-0.10;99.90;;;;;;4380699;32;20074;-66
2021/12/08 08:42:42;;;;;;;;;;;-0.20;99.90;;;;;;4377324;32;20077;-65
2021/12/08 08:46:06;;;;;;;5.37;3.37;;;-0.10;99.90;;;;;;4366918;32;20045;-65
2021/12/08 08:48:46;;;;;;;6.72;3.35;;;0.00;99.90;;;;;;4375699;32;20161;-66
2021/12/08 08:51:33;;;;;;;5.28;3.45;;;0.10;99.90;;;;;;4383605;32;20166;-65
2021/12/08 08:54:09;;;;;;;5.45;3.47;;;0.10;99.90;;;;;;4368601;32;20077;-65
2021/12/08 08:56:43;;;;;;;4.75;3.55;;;0.10;99.90;;;;;;4374061;32;20159;-64
2021/12/08 08:59:19;;;;;;;5.90;3.40;;;0.10;99.90;;;;;;4380422;32;20239;-65
2021/12/08 09:01:50;;;;;;;;;;;0.20;99.90;;;;;;4370926;32;20108;-65
2021/12/08 09:04:30;;;;;;;5.85;3.67;;;0.20;99.90;;;;;;4387427;32;20003;-64
2021/12/08 09:07:03;;;;;;;5.60;3.10;;;0.20;99.90;;;;;;4385690;32;20120;-64
2021/12/08 09:09:35;;;;;;;5.32;3.20;;;0.20;99.90;;;;;;4369745;32;20444;-63
2021/12/08 09:12:15;;;;;;;5.30;3.40;;;0.20;99.90;;;;;;4356399;32;20163;-65
2021/12/08 09:15:14;;;;;;;5.47;3.40;;;0.20;99.90;;;;;;4382980;32;20082;-64
2021/12/08 09:18:15;;;;;;;5.53;3.70;;;0.20;99.90;;;;;;4378996;32;20081;-63
2021/12/08 09:21:18;;;;;;;5.75;3.45;;;0.30;99.90;;;;;;4365735;32;20070;-65
2021/12/08 09:24:15;;;;;;;4.60;3.30;;;0.20;99.90;;;;;;4364794;32;20073;-64
2021/12/08 09:26:56;;;;;;;5.87;3.60;;;0.20;99.90;;;;;;4368418;32;20074;-65
2021/12/08 09:29:36;;;;;;;5.22;3.70;;;0.30;99.90;;;;;;4371477;32;20508;-66
2021/12/08 09:32:17;;;;;;;5.25;3.42;;;0.40;99.90;;;;;;4387224;32;20081;-64
2021/12/08 09:34:58;;;;;;;5.22;3.25;;;0.40;99.90;;;;;;4369591;32;20112;-64
2021/12/08 09:37:36;;;;;;;6.20;3.60;;;0.50;99.90;;;;;;4372489;32;20077;-62
2021/12/08 09:40:41;;;;;;;6.12;3.80;;;0.50;99.90;;;;;;4379593;32;20145;-64
2021/12/08 09:43:28;;;;;;;5.57;3.87;;;0.50;99.90;;;;;;4369127;32;20070;-63
2021/12/08 09:46:02;;;;;;;5.30;3.58;;;0.50;99.90;;;;;;4362721;32;20612;-63
2021/12/08 09:48:29;;;;;;;7.00;3.72;;;0.60;99.90;;;;;;4367328;32;20113;-62
2021/12/08 09:51:00;;;;;;;6.47;3.70;;;0.60;99.90;;;;;;4371503;32;20142;-67
2021/12/08 09:53:28;;;;;;;5.28;3.35;;;0.50;99.90;;;;;;4372973;32;20602;-70
2021/12/08 09:55:55;;;;;;;5.50;3.42;;;0.60;99.90;;;;;;4376587;32;20073;-64
2021/12/08 09:58:22;;;;;;;5.68;3.80;;;0.60;99.90;;;;;;4364181;32;20182;-64
2021/12/08 10:00:55;;;;;;;7.03;4.03;;;0.70;99.90;;;;;;4360892;32;20149;-67
2021/12/08 10:03:22;;;;;;;5.15;3.40;;;0.70;99.90;;;;;;4378528;32;20100;-65
2021/12/08 10:05:50;;;;;;;5.40;3.58;;;0.70;99.90;;;;;;4372465;32;20085;-63
2021/12/08 10:08:17;;;;;;;5.37;3.65;;;0.70;99.90;;;;;;4371628;32;20186;-64
2021/12/08 10:10:45;;;;;;;6.10;3.78;;;0.80;99.90;;;;;;4377144;32;20074;-65
2021/12/08 10:13:13;;;;;;;5.93;4.05;;;0.80;99.90;;;;;;4381773;32;20090;-67
2021/12/08 10:15:40;;;;;;;5.60;3.55;;;0.80;99.90;;;;;;4371914;32;20090;-69
2021/12/08 10:18:08;;;;;;;6.20;3.70;;;0.90;99.90;;;;;;4375783;32;20077;-63
2021/12/08 10:20:55;;;;;;;6.45;3.90;;;0.90;99.90;;;;;;4371918;32;20062;-66
2021/12/08 10:23:32;;;;;;;5.65;3.95;;;1.00;99.90;;;;;;4377279;32;20094;-66
2021/12/08 10:26:06;;;;;;;6.32;4.32;;;0.90;99.90;;;;;;4377209;32;20085;-65
2021/12/08 10:28:47;;;;;;;5.57;3.50;;;1.00;99.90;;;;;;4363831;32;20504;-62
2021/12/08 10:31:32;;;;;;;6.65;3.80;;;1.00;99.90;;;;;;4366344;32;20499;-62
2021/12/08 10:34:28;;;;;;;5.53;3.50;;;1.00;99.90;;;;;;4390124;32;20090;-66
2021/12/08 10:37:17;;;;;;;5.22;3.30;;;1.00;99.90;;;;;;4379988;32;20098;-66
2021/12/08 10:39:52;;;;;;;7.18;4.18;;;1.00;99.90;;;;;;4380514;32;20066;-65
2021/12/08 10:42:31;;;;;;;5.30;3.00;;;1.00;99.90;;;;;;4375920;32;20073;-68
2021/12/08 10:45:13;;;;;;;5.35;3.70;;;1.00;99.90;;;;;;4388323;32;20523;-68
2021/12/08 10:47:55;;;;;;;4.93;2.95;;;1.10;99.90;;;;;;4380256;32;20093;-65
2021/12/08 10:56:11;;;;;;;4.35;2.33;;;1.10;99.90;;;;;;4404086;32;20228;-64
2021/12/08 10:58:53;;;;;;;6.22;3.70;;;1.10;99.90;;;;;;4391029;32;20148;-68
2021/12/08 11:01:25;;;;;;;6.90;4.00;;;1.10;99.90;;;;;;4403528;32;20472;-65
2021/12/08 11:04:17;;;;;;;6.10;4.00;;;1.10;99.90;;;;;;4378188;32;20598;-64
2021/12/08 11:06:44;;;;;;;5.57;3.62;;;1.20;99.90;;;;;;4391097;32;20078;-67
2021/12/08 11:09:19;;;;;;;8.32;4.20;;;1.20;99.90;;;;;;4378237;32;20508;-69
2021/12/08 11:11:48;;;;;;;7.07;3.67;;;1.20;99.90;;;;;;4399574;32;20054;-68
2021/12/08 11:14:14;;;;;;;8.18;3.83;;;1.20;99.90;;;;;;4375857;32;20096;-64
2021/12/08 11:16:44;;;;;;;5.10;3.10;;;1.20;99.90;;;;;;4375950;32;20077;-64
2021/12/08 11:19:15;;;;;;;5.93;4.10;;;1.30;99.90;;;;;;4367391;32;20190;-63
2021/12/08 11:21:51;;;;;;;5.65;3.60;;;1.20;99.90;;;;;;4373596;32;20531;-66
2021/12/08 11:24:30;;;;;;;6.10;3.83;;;1.20;99.90;;;;;;4382251;32;20125;-65
2021/12/08 11:26:57;;;;;;;5.18;3.20;;;1.20;99.90;;;;;;4381069;32;20131;-65
2021/12/08 11:29:31;;;;;;;5.95;3.72;;;1.30;99.90;;;;;;4386120;32;20153;-63
2021/12/08 11:32:01;;;;;;;6.05;3.83;;;1.30;99.90;;;;;;4385911;32;20515;-62
2021/12/08 11:34:34;;;;;;;6.03;3.90;;;1.40;99.90;;;;;;4356493;32;20074;-64
2021/12/08 11:37:06;;;;;;;5.20;3.53;;;1.40;99.90;;;;;;4378809;32;20080;-65
2021/12/08 11:39:41;;;;;;;5.93;3.85;;;1.40;99.90;;;;;;4379936;32;20095;-65
2021/12/08 11:42:16;;;;;;;6.75;3.47;;;1.40;99.90;;;;;;4387734;32;20177;-64
2021/12/08 11:44:50;;;;;;;5.95;3.60;;;1.50;99.90;;;;;;4376722;32;20069;-63
2021/12/08 11:47:22;;;;;;;4.95;3.03;;;1.50;99.90;;;;;;4359782;32;20062;-64
2021/12/08 11:49:59;;;;;;;5.70;3.42;;;1.50;99.90;;;;;;4362204;32;20551;-66
2021/12/08 11:52:32;;;;;;;5.15;3.20;;;1.50;99.90;;;;;;4362387;32;20088;-64
2021/12/08 11:55:26;;;;;;;6.93;3.75;;;1.40;99.90;;;;;;4373127;32;20093;-64
2021/12/08 11:57:56;;;;;;;7.47;4.15;;;1.40;99.90;;;;;;4389031;32;20076;-69
2021/12/08 12:00:32;;;;;;;5.75;3.08;;;1.40;99.90;;;;;;4382509;32;20590;-64
2021/12/08 12:03:04;;;;;;;6.07;3.40;;;1.40;99.90;;;;;;4383848;32;20090;-64
2021/12/08 12:05:39;;;;;;;6.78;3.90;;;1.50;99.90;;;;;;4385576;32;20066;-65
2021/12/08 12:08:13;;;;;;;6.15;3.83;;;1.50;99.90;;;;;;4389019;32;20065;-64
2021/12/08 12:10:44;;;;;;;4.95;3.28;;;1.50;99.90;;;;;;4384701;32;20567;-64
2021/12/08 12:13:12;;;;;;;5.85;4.07;;;1.50;99.90;;;;;;4386686;32;20476;-65
2021/12/08 12:15:45;;;;;;;5.95;3.25;;;1.50;99.90;;;;;;4380730;32;20078;-64
2021/12/08 12:18:14;;;;;;;5.30;3.00;;;1.50;99.90;;;;;;4389384;32;20081;-67
2021/12/08 12:20:44;;;;;;;7.18;3.58;;;1.50;99.90;;;;;;4376554;32;20065;-66
2021/12/08 12:23:49;;;;;;;4.93;3.10;;;1.50;99.90;;;;;;4375476;32;20090;-67
2021/12/08 12:26:37;;;;;;;5.30;3.37;;;1.50;99.90;;;;;;4380106;32;20069;-68
2021/12/08 12:29:42;;;;;;;6.30;3.72;;;1.50;99.90;;;;;;4396748;32;20500;-65
2021/12/08 12:32:29;;;;;;;5.53;3.15;;;1.50;99.90;;;;;;4378482;32;20102;-66
2021/12/08 12:35:32;;;;;;;5.95;3.85;;;1.50;99.90;;;;;;4379684;32;20159;-65
2021/12/08 12:38:11;;;;;;;5.12;3.33;;;1.50;99.90;;;;;;4314829;33;20164;-70
2021/12/08 12:40:51;;;;;;;5.62;3.28;;;1.50;99.90;;;;;;4366538;32;20081;-65
2021/12/08 12:43:31;;;;;;;5.65;3.60;;;1.50;99.90;;;;;;4364042;32;20093;-64
2021/12/08 12:46:07;;;;;;;5.20;3.12;;;1.50;99.90;;;;;;4388328;32;20082;-64
2021/12/08 12:48:37;;;;;;;5.43;3.60;;;1.50;99.90;;;;;;4380468;32;20082;-64
2021/12/08 12:51:04;;;;;;;7.47;3.65;;;1.50;99.90;;;;;;4377264;32;20076;-63
2021/12/08 12:53:41;;;;;;;6.37;3.40;;;1.50;99.90;;;;;;4378059;32;20085;-65
2021/12/08 12:56:34;;;;;;;5.70;3.50;;;1.50;99.90;;;;;;4374146;32;20072;-67
2021/12/08 12:59:16;;;;;;;5.75;3.30;;;1.50;99.90;;;;;;4377545;32;20504;-66
2021/12/08 13:01:46;;;;;;;7.40;3.35;;;1.50;99.90;;;;;;4376173;32;20076;-65
2021/12/08 13:04:22;;;;;;;6.20;3.58;;;1.50;99.90;;;;;;4379765;32;20070;-63
2021/12/08 13:07:01;;;;;;;5.15;3.33;;;1.50;99.90;;;;;;4383388;32;20074;-70
2021/12/08 13:09:47;;;;;;;5.40;3.50;;;1.50;99.90;;;;;;4375276;32;20486;-66
2021/12/08 13:12:24;;;;;;;5.97;3.60;;;1.50;99.90;;;;;;4365782;32;20146;-64
2021/12/08 13:15:17;;;;;;;6.47;4.00;;;1.50;99.90;;;;;;4383902;32;20064;-65
2021/12/08 13:18:09;;;;;;;5.95;3.60;;;1.50;99.90;;;;;;4395844;32;20078;-63
2021/12/08 13:20:54;;;;;;;6.20;3.40;;;1.50;99.90;;;;;;4378303;32;20516;-64
2021/12/08 13:23:25;;;;;;;6.60;3.60;;;1.50;99.90;;;;;;4376095;32;20061;-65
2021/12/08 13:26:06;;;;;;;5.32;3.70;;;1.40;99.90;;;;;;4384879;32;20500;-64
2021/12/08 13:28:38;;;;;;;6.12;3.87;;;1.40;99.90;;;;;;4375890;32;20089;-68
2021/12/08 13:31:20;;;;;;;5.85;3.80;;;1.50;99.90;;;;;;4399240;32;20496;-66
2021/12/08 13:34:01;;;;;;;5.35;3.30;;;1.40;99.90;;;;;;4388406;32;20097;-65
2021/12/08 13:36:32;;;;;;;5.35;3.62;;;1.50;99.90;;;;;;4377932;32;20076;-65
2021/12/08 13:38:59;;;;;;;5.45;3.60;;;1.50;99.90;;;;;;4373181;32;20097;-65
2021/12/08 13:41:30;;;;;;;6.97;3.50;;;1.50;99.90;;;;;;4389583;32;20065;-67
2021/12/08 13:44:02;;;;;;;5.20;3.10;;;1.50;99.90;;;;;;4366687;32;20055;-65
2021/12/08 13:46:42;;;;;;;5.20;3.33;;;1.50;99.90;;;;;;4375732;32;20070;-65
2021/12/08 13:49:26;;;;;;;5.57;3.45;;;1.50;99.90;;;;;;4374908;32;20070;-63
2021/12/08 13:52:08;;;;;;;5.72;3.08;;;1.50;99.90;;;;;;4371358;32;20143;-66
2021/12/08 13:54:48;;;;;;;5.75;3.53;;;1.50;99.90;;;;;;4376485;32;20154;-64
2021/12/08 13:57:40;;;;;;;6.97;3.70;;;1.50;99.90;;;;;;4371090;32;20093;-62
2021/12/08 14:00:16;;;;;;;5.20;3.37;;;1.50;99.90;;;;;;4384933;32;20169;-64
2021/12/08 14:02:51;;;;;;;5.95;3.58;;;1.50;99.90;;;;;;4378857;32;20149;-64
2021/12/08 14:05:35;;;;;;;6.53;4.20;;;1.50;99.90;;;;;;4377425;32;20084;-64
2021/12/08 14:08:10;;;;;;;7.40;4.37;;;1.50;99.90;;;;;;4374459;32;20100;-66
2021/12/08 14:10:43;;;;;;;7.05;3.45;;;1.50;99.90;;;;;;4390701;32;20085;-62
2021/12/08 14:13:14;;;;;;;6.15;3.50;;;1.50;99.90;;;;;;4379949;32;20081;-62